Time;durP1;ratioP1;P1;durP2;ratioP2;P2;SDS_P1;SDS_P2;PMS_P1;PMS_P2;Temp;Humidity;BMP_temperature;BMP_pressure;BME280_temperature;BME280_humidity;BME280_pressure;Samples;Min_cycle;Max_cycle;Signal;HPM_P1;HPM_P2
2023/04/19 00:01:00;;;;;;;17.77;8.63;;;;;;;8.90;100.00;99351.78;4990068;28;20381;-78
2023/04/19 00:03:26;;;;;;;17.33;8.73;;;;;;;8.89;100.00;99350.94;4992472;28;20160;-80
2023/04/19 00:05:53;;;;;;;20.83;9.52;;;;;;;9.03;100.00;99362.00;4992415;28;20714;-79
2023/04/19 00:08:18;;;;;;;15.82;8.98;;;;;;;8.97;100.00;99361.69;4995130;28;20424;-80
2023/04/19 00:10:43;;;;;;;18.20;9.05;;;;;;;8.95;100.00;99355.63;4993310;28;20088;-79
2023/04/19 00:13:09;;;;;;;17.98;8.60;;;;;;;8.75;100.00;99317.50;4988358;28;20034;-78
2023/04/19 00:15:34;;;;;;;14.52;7.68;;;;;;;8.91;100.00;99350.78;4992291;28;20031;-78
2023/04/19 00:18:00;;;;;;;17.55;8.55;;;;;;;8.93;100.00;99354.13;4994535;28;20026;-79
2023/04/19 00:20:26;;;;;;;17.98;8.73;;;;;;;8.98;100.00;99352.56;4994163;28;20022;-79
2023/04/19 00:22:51;;;;;;;18.52;9.25;;;;;;;8.99;100.00;99370.44;4985499;28;20061;-78
2023/04/19 00:25:16;;;;;;;15.38;9.02;;;;;;;8.97;100.00;99350.91;4992795;28;20038;-78
2023/04/19 00:27:41;;;;;;;21.42;9.07;;;;;;;8.88;100.00;99345.72;4993626;28;20113;-78
2023/04/19 00:30:07;;;;;;;17.50;8.38;;;;;;;8.76;100.00;99312.94;4991989;28;20033;-78
2023/04/19 00:32:32;;;;;;;16.30;8.93;;;;;;;8.92;100.00;99364.09;4994782;28;20044;-80
2023/04/19 00:34:58;;;;;;;16.00;8.90;;;;;;;8.86;100.00;99348.63;4995097;28;20026;-79
2023/04/19 00:37:23;;;;;;;17.35;9.50;;;;;;;8.78;100.00;99337.88;4993509;28;20464;-79
2023/04/19 00:39:48;;;;;;;18.25;9.50;;;;;;;8.81;100.00;99345.63;4993097;28;20073;-79
2023/04/19 00:42:14;;;;;;;16.27;8.98;;;;;;;8.61;100.00;99314.72;4993271;28;20033;-78
2023/04/19 00:44:39;;;;;;;20.75;10.02;;;;;;;8.72;100.00;99325.94;4993565;28;20119;-78
2023/04/19 00:47:04;;;;;;;14.73;8.70;;;;;;;8.78;100.00;99341.41;4990148;28;20019;-78
2023/04/19 00:49:30;;;;;;;14.40;8.93;;;;;;;8.71;100.00;99339.59;4986442;28;20097;-78
2023/04/19 00:51:55;;;;;;;18.58;9.00;;;;;;;8.66;100.00;99321.25;4988340;28;20030;-78
2023/04/19 00:54:22;;;;;;;16.45;9.00;;;;;;;8.59;100.00;99309.50;4992038;28;20033;-79
2023/04/19 00:56:47;;;;;;;16.00;8.77;;;;;;;8.67;100.00;99338.28;4995205;28;20552;-80
2023/04/19 00:59:17;;;;;;;16.75;9.05;;;;;;;8.74;100.00;99353.56;4984607;28;20050;-78
2023/04/19 01:01:42;;;;;;;15.05;8.68;;;;;;;8.66;100.00;99333.91;4988317;28;20571;-78
2023/04/19 01:04:08;;;;;;;17.48;9.18;;;;;;;8.69;100.00;99341.63;4991381;28;20044;-79
2023/04/19 01:06:35;;;;;;;17.13;9.07;;;;;;;8.75;100.00;99357.97;4993452;28;20046;-78
2023/04/19 01:09:00;;;;;;;19.48;9.52;;;;;;;8.70;100.00;99332.53;4987637;28;20489;-79
2023/04/19 01:11:26;;;;;;;14.93;8.77;;;;;;;8.69;100.00;99353.25;4982581;28;20033;-78
2023/04/19 01:13:52;;;;;;;14.55;9.20;;;;;;;8.54;100.00;99306.47;5000042;28;20103;-78
2023/04/19 01:16:17;;;;;;;16.95;8.90;;;;;;;8.66;100.00;99332.03;4994056;28;20825;-78
2023/04/19 01:18:43;;;;;;;18.30;9.73;;;;;;;8.45;100.00;99300.31;4992749;28;20037;-78
2023/04/19 01:21:09;;;;;;;17.20;9.73;;;;;;;8.60;100.00;99331.94;4997038;28;20383;-79
2023/04/19 01:23:35;;;;;;;16.65;9.70;;;;;;;8.65;100.00;99318.75;4985591;28;20042;-79
2023/04/19 01:26:01;;;;;;;17.00;9.23;;;;;;;8.59;100.00;99322.13;4992674;28;20577;-78
2023/04/19 01:28:26;;;;;;;19.45;9.57;;;;;;;8.65;100.00;99321.44;4990812;28;20042;-78
2023/04/19 01:30:52;;;;;;;16.65;9.02;;;;;;;8.71;100.00;99318.88;4983425;28;20026;-78
2023/04/19 01:33:18;;;;;;;17.73;9.43;;;;;;;8.56;100.00;99315.25;4990404;28;20393;-78
2023/04/19 01:35:44;;;;;;;17.33;8.90;;;;;;;8.40;100.00;99283.00;4992468;28;20122;-78
2023/04/19 01:38:09;;;;;;;16.92;9.55;;;;;;;8.58;100.00;99305.13;4992803;28;20054;-80
2023/04/19 01:40:34;;;;;;;15.98;10.02;;;;;;;8.78;100.00;99319.00;4991753;28;20030;-79
2023/04/19 01:43:00;;;;;;;18.08;9.23;;;;;;;8.64;100.00;99307.09;4991990;28;20038;-78
2023/04/19 01:45:25;;;;;;;18.05;9.57;;;;;;;8.55;100.00;99298.22;4984912;28;20034;-79
2023/04/19 01:47:51;;;;;;;19.70;10.27;;;;;;;8.67;100.00;99314.00;4989778;28;20076;-79
2023/04/19 01:50:16;;;;;;;20.90;10.38;;;;;;;8.64;100.00;99308.97;4996676;28;20129;-78
2023/04/19 01:52:41;;;;;;;18.05;9.93;;;;;;;8.58;100.00;99288.94;4991314;28;20030;-78
2023/04/19 01:55:07;;;;;;;20.38;9.82;;;;;;;8.54;100.00;99298.41;4989207;28;20026;-79
2023/04/19 01:57:32;;;;;;;13.98;8.88;;;;;;;8.64;100.00;99300.88;4992603;28;20049;-78
2023/04/19 01:59:58;;;;;;;19.33;10.00;;;;;;;8.46;100.00;99274.19;4989673;28;20499;-78
2023/04/19 02:02:23;;;;;;;20.02;9.93;;;;;;;8.52;100.00;99290.50;4991638;28;20503;-78
2023/04/19 02:04:48;;;;;;;19.77;10.13;;;;;;;8.49;100.00;99290.03;4992965;28;20038;-78
2023/04/19 02:07:14;;;;;;;17.25;9.65;;;;;;;8.62;100.00;99287.59;4993016;28;20105;-79
2023/04/19 02:09:39;;;;;;;19.83;9.85;;;;;;;8.52;100.00;99287.81;4989892;28;20038;-78
2023/04/19 02:12:05;;;;;;;16.88;9.45;;;;;;;8.53;100.00;99288.63;4991341;28;20030;-78
2023/04/19 02:14:30;;;;;;;16.65;9.05;;;;;;;8.48;100.00;99277.53;4993580;28;20555;-79
2023/04/19 02:16:56;;;;;;;17.42;9.20;;;;;;;8.28;100.00;99260.97;4986600;28;20492;-78
2023/04/19 02:19:22;;;;;;;22.13;10.07;;;;;;;8.41;100.00;99260.38;4990985;28;20031;-79
2023/04/19 02:21:47;;;;;;;17.60;10.13;;;;;;;8.42;100.00;99272.88;4991220;28;20041;-78
2023/04/19 02:24:12;;;;;;;17.15;10.20;;;;;;;8.37;100.00;99270.66;4989943;28;20038;-80
2023/04/19 02:26:38;;;;;;;19.50;9.98;;;;;;;8.51;100.00;99286.13;4991338;28;20030;-79
2023/04/19 02:29:04;;;;;;;16.55;9.48;;;;;;;8.40;100.00;99273.03;4987903;28;20034;-78
2023/04/19 02:31:29;;;;;;;16.10;9.75;;;;;;;8.42;100.00;99270.19;4988462;28;20395;-78
2023/04/19 02:33:55;;;;;;;15.93;9.70;;;;;;;8.51;100.00;99282.56;4991729;28;20030;-78
2023/04/19 02:36:20;;;;;;;21.88;10.30;;;;;;;8.29;100.00;99255.38;4991723;28;20081;-79
2023/04/19 02:38:45;;;;;;;18.98;9.95;;;;;;;8.35;100.00;99251.97;4987116;28;20030;-78
2023/04/19 02:41:10;;;;;;;23.00;10.07;;;;;;;8.49;100.00;99277.38;4990615;28;20076;-78
2023/04/19 02:43:36;;;;;;;18.33;9.85;;;;;;;8.25;100.00;99242.44;4990925;28;20047;-79
2023/04/19 02:46:01;;;;;;;17.48;10.02;;;;;;;8.39;100.00;99268.69;4999492;28;20041;-78
2023/04/19 02:48:27;;;;;;;18.58;10.63;;;;;;;8.34;100.00;99260.25;5011336;28;20105;-78
2023/04/19 02:50:52;;;;;;;19.63;10.10;;;;;;;8.27;100.00;99254.72;4988666;28;20026;-78
2023/04/19 02:53:17;;;;;;;20.25;10.43;;;;;;;8.34;100.00;99262.94;4982830;28;20033;-78
2023/04/19 02:55:43;;;;;;;18.63;9.27;;;;;;;8.15;100.00;99241.81;4991607;28;20026;-79
2023/04/19 02:58:08;;;;;;;16.88;9.45;;;;;;;8.32;100.00;99259.56;4987817;28;20034;-81
2023/04/19 03:00:33;;;;;;;16.17;9.20;;;;;;;8.34;100.00;99268.34;4992344;28;20030;-78
2023/04/19 03:03:08;;;;;;;20.83;9.80;;;;;;;8.20;100.00;99258.28;4987180;28;20042;-79
2023/04/19 03:06:02;;;;;;;17.20;9.38;;;;;;;8.34;100.00;99284.50;4991966;28;20030;-80
2023/04/19 03:08:30;;;;;;;16.05;8.75;;;;;;;8.26;100.00;99276.47;4991478;28;20080;-82
2023/04/19 03:10:55;;;;;;;17.43;8.90;;;;;;;8.18;100.00;99266.56;4991712;28;20122;-79
2023/04/19 03:13:21;;;;;;;15.13;9.00;;;;;;;8.18;100.00;99268.44;4991869;28;20076;-78
2023/04/19 03:15:47;;;;;;;15.90;9.35;;;;;;;8.14;100.00;99262.53;4980334;28;20030;-80
2023/04/19 03:18:13;;;;;;;16.27;9.02;;;;;;;8.18;100.00;99274.66;4973916;28;20110;-79
2023/04/19 03:20:38;;;;;;;15.95;9.10;;;;;;;7.98;100.00;99249.16;4987565;28;20082;-79
2023/04/19 03:23:03;;;;;;;14.73;8.95;;;;;;;8.10;100.00;99264.75;5004632;28;20026;-81
2023/04/19 03:25:29;;;;;;;14.55;9.13;;;;;;;8.03;100.00;99265.63;4984067;28;20137;-77
2023/04/19 03:27:55;;;;;;;17.90;9.13;;;;;;;7.81;100.00;99245.72;4987804;28;20113;-77
2023/04/19 03:30:20;;;;;;;17.67;8.77;;;;;;;7.84;100.00;99264.22;4990907;28;20383;-79
2023/04/19 03:32:46;;;;;;;17.23;9.40;;;;;;;7.65;100.00;99250.13;4989554;28;20109;-81
2023/04/19 03:35:11;;;;;;;13.93;8.80;;;;;;;7.62;100.00;99263.09;4990527;28;20050;-79
2023/04/19 03:37:37;;;;;;;14.80;9.13;;;;;;;7.42;100.00;99241.94;4992606;28;20061;-78
2023/04/19 03:40:04;;;;;;;17.83;9.55;;;;;;;7.42;100.00;99247.34;4990639;28;20093;-78
2023/04/19 03:42:29;;;;;;;17.35;10.40;;;;;;;7.45;100.00;99262.31;4991365;28;20046;-78
2023/04/19 03:44:55;;;;;;;17.00;9.30;;;;;;;7.40;100.00;99249.34;4993355;28;20026;-80
2023/04/19 03:47:20;;;;;;;17.77;8.68;;;;;;;7.32;100.00;99248.53;4992873;28;20101;-81
2023/04/19 03:49:46;;;;;;;18.45;10.02;;;;;;;7.33;100.00;99248.34;4977908;28;20539;-80
2023/04/19 03:52:11;;;;;;;16.75;9.32;;;;;;;7.21;100.00;99245.19;4987555;28;20113;-78
2023/04/19 03:54:36;;;;;;;19.52;10.52;;;;;;;7.19;100.00;99241.00;4991485;28;20501;-83
2023/04/19 03:57:01;;;;;;;17.80;10.48;;;;;;;7.17;100.00;99246.53;4987933;28;20034;-81
2023/04/19 03:59:28;;;;;;;19.90;10.52;;;;;;;7.19;100.00;99246.38;4989297;28;20061;-83
2023/04/19 04:01:53;;;;;;;18.08;10.00;;;;;;;7.17;100.00;99240.31;4986208;28;20026;-78
2023/04/19 04:04:18;;;;;;;21.05;10.02;;;;;;;7.03;100.00;99223.03;4991158;28;20412;-76
2023/04/19 04:06:44;;;;;;;19.35;10.48;;;;;;;7.11;100.00;99262.53;4994559;28;20037;-75
2023/04/19 04:09:09;;;;;;;19.73;10.57;;;;;;;7.09;100.00;99259.16;4988803;28;20515;-76
2023/04/19 04:11:35;;;;;;;18.85;10.13;;;;;;;6.90;100.00;99254.97;4993100;28;20045;-81
2023/04/19 04:14:00;;;;;;;19.63;9.95;;;;;;;6.56;100.00;99215.66;4996406;28;20058;-81
2023/04/19 04:16:25;;;;;;;20.27;9.77;;;;;;;6.71;100.00;99258.84;4998004;28;20486;-81
2023/04/19 04:18:51;;;;;;;17.80;9.57;;;;;;;6.56;100.00;99258.66;4995316;28;20509;-84
2023/04/19 04:21:16;;;;;;;20.02;9.82;;;;;;;6.57;100.00;99252.28;4993080;28;20168;-79
2023/04/19 04:23:42;;;;;;;23.67;10.48;;;;;;;6.44;100.00;99258.13;4994453;28;20030;-85
2023/04/19 04:26:08;;;;;;;16.65;9.35;;;;;;;6.30;100.00;99245.34;4991153;28;20034;-81
2023/04/19 04:28:34;;;;;;;18.42;10.30;;;;;;;6.30;100.00;99270.38;4997619;28;20026;-78
2023/04/19 04:30:59;;;;;;;21.80;11.38;;;;;;;6.15;100.00;99266.63;4990716;28;20022;-84
2023/04/19 04:33:26;;;;;;;20.92;9.55;;;;;;;6.12;100.00;99285.78;4988030;28;20037;-81
2023/04/19 04:35:52;;;;;;;24.42;10.68;;;;;;;6.02;100.00;99282.38;4998571;28;20588;-80
2023/04/19 04:38:19;;;;;;;20.55;11.02;;;;;;;5.92;100.00;99277.09;4998690;28;20026;-81
2023/04/19 04:40:54;;;;;;;21.88;10.57;;;;;;;5.89;100.00;99280.97;4995990;28;20503;-82
2023/04/19 04:43:24;;;;;;;20.17;10.50;;;;;;;5.86;100.00;99281.28;4994690;28;20386;-76
2023/04/19 04:45:50;;;;;;;20.67;10.45;;;;;;;5.67;100.00;99247.47;4994803;28;20030;-79
2023/04/19 04:48:16;;;;;;;20.80;10.73;;;;;;;6.01;100.00;99291.44;4993739;28;20042;-78
2023/04/19 04:50:43;;;;;;;22.40;11.40;;;;;;;6.02;100.00;99295.81;4992405;28;20023;-81
2023/04/19 04:53:08;;;;;;;21.13;10.98;;;;;;;5.98;100.00;99283.72;5006961;28;20046;-79
2023/04/19 04:55:35;;;;;;;18.48;10.02;;;;;;;5.98;100.00;99273.81;5002615;28;20018;-81
2023/04/19 04:58:00;;;;;;;22.50;9.75;;;;;;;6.05;100.00;99282.03;5005201;28;20026;-76
2023/04/19 05:00:26;;;;;;;20.15;11.13;;;;;;;6.24;100.00;99294.38;4992532;28;20062;-76
2023/04/19 05:02:51;;;;;;;21.58;9.75;;;;;;;6.29;100.00;99284.00;4990169;28;20093;-77
2023/04/19 05:05:16;;;;;;;20.33;10.55;;;;;;;6.28;100.00;99247.34;4988359;28;20109;-77
2023/04/19 05:07:42;;;;;;;20.98;9.27;;;;;;;6.61;100.00;99282.38;4995563;28;20030;-76
2023/04/19 05:10:07;;;;;;;18.55;10.27;;;;;;;6.52;100.00;99239.34;5003099;28;20030;-84
2023/04/19 05:12:33;;;;;;;19.30;9.40;;;;;;;6.86;100.00;99259.84;4994639;28;20030;-85
2023/04/19 05:14:58;;;;;;;16.23;8.77;;;;;;;7.06;100.00;99263.03;4993074;28;20026;-87
2023/04/19 05:17:23;;;;;;;19.17;9.70;;;;;;;7.10;100.00;99247.38;4994903;28;20030;-82
2023/04/19 05:19:49;;;;;;;18.88;9.70;;;;;;;7.31;100.00;99250.41;4992741;28;20122;-82
2023/04/19 05:22:15;;;;;;;20.08;9.77;;;;;;;7.50;100.00;99251.88;4990614;28;20404;-83
2023/04/19 05:24:40;;;;;;;17.58;8.38;;;;;;;7.74;100.00;99250.94;4994748;28;20026;-79
2023/04/19 05:27:05;;;;;;;17.65;8.90;;;;;;;7.97;100.00;99245.63;4992897;28;20054;-79
2023/04/19 05:29:31;;;;;;;15.77;8.73;;;;;;;8.35;100.00;99256.53;4989300;28;20019;-78
2023/04/19 05:31:57;;;;;;;17.08;8.50;;;;;;;8.64;100.00;99265.81;4989781;28;20041;-76
2023/04/19 05:34:23;;;;;;;15.23;8.40;;;;;;;8.73;100.00;99240.47;4993958;28;20049;-82
2023/04/19 05:36:49;;;;;;;18.13;8.75;;;;;;;8.94;100.00;99256.81;4985811;28;20026;-87
2023/04/19 05:39:14;;;;;;;17.95;8.70;;;;;;;8.98;100.00;99244.63;4986229;28;20030;-80
2023/04/19 05:41:39;;;;;;;14.70;8.15;;;;;;;9.23;100.00;99243.56;4993816;28;20469;-78
2023/04/19 05:44:05;;;;;;;15.45;8.45;;;;;;;9.30;100.00;99220.19;4995937;28;20026;-85
2023/04/19 05:46:30;;;;;;;16.77;8.43;;;;;;;9.52;100.00;99230.09;4993798;28;20022;-84
2023/04/19 05:48:56;;;;;;;14.75;8.00;;;;;;;10.08;100.00;99222.28;4994465;28;20054;-79
2023/04/19 05:51:21;;;;;;;16.67;8.13;;;;;;;11.09;100.00;99224.97;5000547;28;20029;-84
2023/04/19 05:53:46;;;;;;;14.80;7.75;;;;;;;12.89;100.00;99226.63;4993982;28;20076;-85
2023/04/19 05:56:12;;;;;;;14.95;7.95;;;;;;;15.06;100.00;99235.31;4991874;28;20026;-79
2023/04/19 05:58:37;;;;;;;12.15;7.00;;;;;;;16.57;100.00;99202.16;4985314;28;20026;-78
2023/04/19 06:01:03;;;;;;;10.77;6.43;;;;;;;17.94;88.00;99212.03;4992729;28;20023;-78
2023/04/19 06:03:28;;;;;;;11.15;6.70;;;;;;;18.61;76.48;99223.22;5001436;28;20041;-77
2023/04/19 06:05:54;;;;;;;14.32;6.55;;;;;;;19.61;70.36;99226.28;4986410;28;20069;-76
2023/04/19 06:08:19;;;;;;;14.48;7.25;;;;;;;18.97;68.92;99179.22;4988987;28;20136;-76
2023/04/19 06:10:46;;;;;;;12.57;6.72;;;;;;;20.42;63.87;99242.22;4984853;28;20070;-79
2023/04/19 06:13:12;;;;;;;9.57;6.88;;;;;;;20.21;61.65;99210.91;4988259;28;20026;-77
2023/04/19 06:15:39;;;;;;;10.57;5.85;;;;;;;21.48;61.45;99232.53;4993347;28;20036;-78
2023/04/19 06:18:08;;;;;;;9.63;6.10;;;;;;;21.94;57.49;99221.00;4992907;28;20026;-78
2023/04/19 06:20:38;;;;;;;10.63;6.85;;;;;;;22.01;56.27;99208.63;4992998;28;20029;-78
2023/04/19 06:23:07;;;;;;;12.43;6.55;;;;;;;22.36;53.88;99231.13;4997104;28;20026;-80
2023/04/19 06:25:32;;;;;;;9.65;6.53;;;;;;;23.24;51.85;99224.66;4993424;28;20038;-77
2023/04/19 06:27:58;;;;;;;13.30;6.40;;;;;;;24.30;49.98;99230.28;4991136;28;20069;-78
2023/04/19 06:30:23;;;;;;;11.05;7.10;;;;;;;23.99;47.66;99230.38;4988557;28;20034;-81
2023/04/19 06:32:49;;;;;;;11.13;6.45;;;;;;;24.94;47.50;99215.53;5003946;28;20019;-80
2023/04/19 06:35:14;;;;;;;9.15;6.40;;;;;;;25.08;47.05;99211.00;4999606;28;20477;-79
2023/04/19 06:37:40;;;;;;;10.88;5.90;;;;;;;24.15;47.95;99211.81;4993810;28;20026;-80
2023/04/19 06:40:07;;;;;;;8.18;5.95;;;;;;;23.44;48.90;99193.47;4997375;28;20030;-79
2023/04/19 06:42:34;;;;;;;9.88;6.07;;;;;;;22.44;51.84;99239.69;4989836;28;20058;-82
2023/04/19 06:44:59;;;;;;;9.85;6.10;;;;;;;20.10;57.41;99251.16;4987058;28;20093;-78
2023/04/19 06:47:25;;;;;;;10.55;6.70;;;;;;;18.51;62.08;99249.63;4992139;28;20045;-79
2023/04/19 06:49:50;;;;;;;9.60;6.25;;;;;;;17.57;71.15;99239.66;4993228;28;20023;-76
2023/04/19 06:52:16;;;;;;;12.07;6.50;;;;;;;18.21;72.68;99206.84;4999331;28;20026;-78
2023/04/19 06:54:41;;;;;;;10.75;6.38;;;;;;;20.23;64.52;99235.41;4991933;28;20057;-76
2023/04/19 06:57:06;;;;;;;9.52;6.05;;;;;;;22.24;58.07;99220.31;4992602;28;20065;-76
2023/04/19 06:59:32;;;;;;;9.00;6.38;;;;;;;24.60;50.41;99230.16;4997022;28;20033;-80
2023/04/19 07:01:57;;;;;;;8.52;5.85;;;;;;;26.32;47.23;99214.19;4989849;28;20022;-77
2023/04/19 07:04:25;;;;;;;7.18;5.22;;;;;;;27.26;44.08;99209.81;4990040;28;20123;-77
2023/04/19 07:06:50;;;;;;;9.07;5.95;;;;;;;25.53;45.80;99214.50;4984046;28;20031;-77
2023/04/19 07:09:16;;;;;;;7.90;6.00;;;;;;;23.26;48.88;99192.91;4989694;28;20036;-78
2023/04/19 07:11:41;;;;;;;10.18;5.38;;;;;;;25.45;46.65;99209.59;4991025;28;20443;-74
2023/04/19 07:14:06;;;;;;;9.23;5.68;;;;;;;26.09;44.76;99215.06;4994621;28;20054;-79
2023/04/19 07:16:32;;;;;;;9.00;6.45;;;;;;;24.37;45.71;99194.84;4996670;28;20133;-81
2023/04/19 07:18:57;;;;;;;13.48;5.50;;;;;;;24.99;46.30;99204.41;4994555;28;20034;-80
2023/04/19 07:21:29;;;;;;;9.18;5.45;;;;;;;23.41;48.87;99187.38;4991773;28;20027;-78
2023/04/19 07:23:54;;;;;;;11.90;6.57;;;;;;;23.68;49.02;99191.75;4991803;28;20109;-84
2023/04/19 07:26:30;;;;;;;9.43;6.20;;;;;;;23.34;48.40;99192.38;4992578;28;20046;-80
2023/04/19 07:28:55;;;;;;;10.95;5.95;;;;;;;24.69;47.44;99191.63;4998686;28;20034;-76
2023/04/19 07:31:23;;;;;;;8.88;6.18;;;;;;;22.39;50.27;99192.81;4997440;28;20022;-81
2023/04/19 07:34:10;;;;;;;8.50;6.03;;;;;;;19.88;56.48;99209.94;5004776;28;20034;-81
2023/04/19 07:36:36;;;;;;;11.13;6.68;;;;;;;18.16;64.78;99184.84;4991673;28;20130;-80
2023/04/19 07:39:03;;;;;;;7.90;5.85;;;;;;;17.30;84.89;99206.47;4994956;28;20391;-78
2023/04/19 07:41:29;;;;;;;11.52;6.40;;;;;;;16.41;100.00;99211.81;4998182;28;20019;-78
2023/04/19 07:43:54;;;;;;;9.95;6.30;;;;;;;15.70;100.00;99191.53;4998854;28;20022;-78
2023/04/19 07:46:19;;;;;;;14.18;6.45;;;;;;;15.21;100.00;99188.63;4994346;28;20034;-77
2023/04/19 07:48:46;;;;;;;12.65;6.50;;;;;;;14.80;100.00;99194.63;4997040;28;20026;-80
2023/04/19 07:51:13;;;;;;;10.32;6.93;;;;;;;14.11;100.00;99213.44;4995007;28;20049;-80
2023/04/19 07:53:42;;;;;;;10.50;6.90;;;;;;;13.57;100.00;99192.91;4993432;28;20026;-78
2023/04/19 07:56:09;;;;;;;10.65;6.63;;;;;;;13.04;100.00;99171.25;4991564;28;20531;-78
2023/04/19 07:58:36;;;;;;;12.02;7.50;;;;;;;12.90;100.00;99194.84;4988313;28;20034;-79
2023/04/19 08:01:02;;;;;;;12.57;7.43;;;;;;;12.89;100.00;99190.44;4992806;28;20026;-78
2023/04/19 08:03:29;;;;;;;18.80;7.18;;;;;;;12.84;100.00;99204.69;4994145;28;20029;-74
2023/04/19 08:05:54;;;;;;;12.63;7.55;;;;;;;13.04;100.00;99193.78;5001384;28;20392;-75
2023/04/19 08:08:20;;;;;;;13.10;7.00;;;;;;;12.90;100.00;99192.13;4987283;28;20034;-73
2023/04/19 08:10:45;;;;;;;10.90;7.22;;;;;;;12.90;100.00;99195.69;4973201;28;20042;-74
2023/04/19 08:13:11;;;;;;;15.40;8.18;;;;;;;12.93;100.00;99187.13;4991086;28;20027;-76
2023/04/19 08:15:36;;;;;;;13.77;7.45;;;;;;;13.00;100.00;99202.59;4991677;28;20472;-73
2023/04/19 08:18:03;;;;;;;13.05;7.50;;;;;;;12.83;100.00;99191.28;4993884;28;20061;-75
2023/04/19 08:20:29;;;;;;;13.68;7.07;;;;;;;12.41;100.00;99199.59;4989586;28;20026;-75
2023/04/19 08:22:55;;;;;;;12.13;7.53;;;;;;;12.24;100.00;99192.88;4992451;28;20492;-75
2023/04/19 08:25:25;;;;;;;11.65;7.57;;;;;;;12.18;100.00;99205.41;4989253;28;20042;-77
2023/04/19 08:27:50;;;;;;;12.02;6.72;;;;;;;12.04;100.00;99198.25;4990521;28;20026;-73
2023/04/19 08:30:16;;;;;;;12.13;7.68;;;;;;;12.00;100.00;99188.84;4987079;28;20409;-76
2023/04/19 08:32:41;;;;;;;15.43;7.53;;;;;;;12.23;100.00;99191.19;4996670;28;20057;-78
2023/04/19 08:35:07;;;;;;;14.95;6.97;;;;;;;12.47;100.00;99168.06;4994119;28;20053;-75
2023/04/19 08:37:32;;;;;;;12.35;6.57;;;;;;;13.10;100.00;99178.56;4995415;28;20630;-80
2023/04/19 08:39:58;;;;;;;12.57;7.13;;;;;;;14.02;100.00;99168.50;4994002;28;20154;-76
2023/04/19 08:42:23;;;;;;;12.80;6.97;;;;;;;14.51;100.00;99160.66;4993500;28;20117;-79
2023/04/19 08:44:49;;;;;;;10.93;6.65;;;;;;;14.80;100.00;99183.72;4994484;28;20022;-78
2023/04/19 08:47:15;;;;;;;14.10;7.50;;;;;;;15.16;100.00;99169.38;4991652;28;20108;-78
2023/04/19 08:49:43;;;;;;;9.93;6.07;;;;;;;15.25;100.00;99148.97;4992420;28;20026;-78
2023/04/19 08:52:11;;;;;;;11.80;6.45;;;;;;;15.39;100.00;99152.38;4991368;28;20073;-78
2023/04/19 08:54:37;;;;;;;8.77;6.53;;;;;;;15.89;100.00;99179.53;4994140;28;20105;-78
2023/04/19 08:57:04;;;;;;;12.45;6.95;;;;;;;15.77;100.00;99171.28;4986287;28;20164;-78
2023/04/19 08:59:32;;;;;;;13.48;6.90;;;;;;;15.69;100.00;99168.00;4990426;28;20034;-78
2023/04/19 09:02:00;;;;;;;11.00;6.80;;;;;;;15.29;100.00;99152.06;4990566;28;20026;-79
2023/04/19 09:04:25;;;;;;;10.82;6.28;;;;;;;15.01;100.00;99155.25;4992537;28;20066;-75
2023/04/19 09:06:51;;;;;;;10.45;6.00;;;;;;;15.12;100.00;99165.44;4993626;28;20119;-76
2023/04/19 09:09:21;;;;;;;9.20;5.95;;;;;;;15.09;100.00;99157.69;4988351;28;20031;-76
2023/04/19 09:11:47;;;;;;;11.13;6.10;;;;;;;15.12;100.00;99162.72;4990831;28;20057;-76
2023/04/19 09:14:17;;;;;;;11.32;6.88;;;;;;;14.99;100.00;99157.41;4982158;28;20545;-76
2023/04/19 09:16:43;;;;;;;10.63;6.13;;;;;;;14.74;100.00;99147.31;4990055;28;20084;-77
2023/04/19 09:19:10;;;;;;;8.55;6.13;;;;;;;14.66;100.00;99140.25;4995671;28;20026;-77
2023/04/19 09:21:35;;;;;;;10.80;6.95;;;;;;;14.56;100.00;99141.81;4997385;28;20015;-79
2023/04/19 09:24:02;;;;;;;10.70;6.72;;;;;;;14.73;100.00;99144.84;4998077;28;20034;-77
2023/04/19 09:26:30;;;;;;;9.77;6.03;;;;;;;14.75;100.00;99156.31;4998813;28;20026;-77
2023/04/19 09:29:15;;;;;;;9.43;5.95;;;;;;;14.73;100.00;99134.78;4991257;28;20114;-75
2023/04/19 09:31:55;;;;;;;9.82;6.40;;;;;;;14.92;100.00;99152.00;4988082;28;20034;-75
2023/04/19 09:34:22;;;;;;;10.73;6.00;;;;;;;14.95;100.00;99132.47;4989765;28;20034;-75
2023/04/19 09:36:48;;;;;;;8.82;5.70;;;;;;;15.22;100.00;99140.38;4988804;28;20480;-75
2023/04/19 09:39:27;;;;;;;11.98;6.68;;;;;;;15.29;100.00;99128.34;4981501;28;20026;-75
2023/04/19 09:41:53;;;;;;;14.18;6.63;;;;;;;15.36;100.00;99139.19;4987953;28;20064;-76
2023/04/19 09:44:19;;;;;;;8.65;5.72;;;;;;;15.47;100.00;99102.16;4992032;28;20034;-75
2023/04/19 09:46:47;;;;;;;10.68;6.20;;;;;;;15.74;100.00;99117.16;4992535;28;20030;-76
2023/04/19 09:49:15;;;;;;;9.95;6.35;;;;;;;16.76;100.00;99124.50;4993136;28;20547;-74
2023/04/19 09:51:43;;;;;;;12.55;7.57;;;;;;;16.79;100.00;99118.63;4985265;28;20114;-74
2023/04/19 09:54:09;;;;;;;9.30;5.78;;;;;;;16.96;100.00;99132.41;4992935;28;20127;-74
2023/04/19 09:56:35;;;;;;;9.25;6.38;;;;;;;16.92;100.00;99109.31;4994797;28;20045;-75
2023/04/19 09:59:09;;;;;;;9.95;5.97;;;;;;;16.68;100.00;99104.91;4996094;28;20500;-74
2023/04/19 10:01:43;;;;;;;10.73;6.75;;;;;;;16.10;100.00;99114.59;4988104;28;20033;-74
2023/04/19 10:04:10;;;;;;;8.90;6.38;;;;;;;15.85;100.00;99115.56;4992131;28;20034;-76
2023/04/19 10:06:36;;;;;;;12.32;6.93;;;;;;;16.00;100.00;99109.69;4994743;28;20026;-75
2023/04/19 10:09:03;;;;;;;11.25;5.85;;;;;;;15.50;100.00;99121.63;4992278;28;20084;-75
2023/04/19 10:11:39;;;;;;;11.20;6.75;;;;;;;14.91;100.00;99106.75;4986960;28;20026;-75
2023/04/19 10:14:07;;;;;;;13.13;6.07;;;;;;;14.59;100.00;99105.97;4992664;28;20022;-75
2023/04/19 10:16:34;;;;;;;10.88;6.93;;;;;;;14.08;100.00;99102.31;4991293;28;20054;-76
2023/04/19 10:19:02;;;;;;;12.77;7.35;;;;;;;13.70;100.00;99118.63;4983389;28;20117;-75
2023/04/19 10:21:28;;;;;;;11.05;7.10;;;;;;;13.05;100.00;99114.00;4989874;28;20022;-75
2023/04/19 10:23:55;;;;;;;10.88;6.72;;;;;;;12.84;100.00;99096.06;4992663;28;20037;-79
2023/04/19 10:26:21;;;;;;;16.83;8.32;;;;;;;12.66;100.00;99107.56;4989169;28;20022;-75
2023/04/19 10:28:47;;;;;;;15.15;8.13;;;;;;;12.67;100.00;99100.25;4989510;28;20037;-75
2023/04/19 10:31:12;;;;;;;15.23;7.63;;;;;;;12.45;100.00;99097.75;4985993;28;20379;-75
2023/04/19 10:33:39;;;;;;;14.52;7.90;;;;;;;12.45;100.00;99099.63;4988051;28;20034;-75
2023/04/19 10:36:08;;;;;;;16.83;9.23;;;;;;;12.23;100.00;99104.41;4980137;28;20034;-75
2023/04/19 10:38:43;;;;;;;14.00;8.45;;;;;;;12.00;100.00;99119.19;4990584;28;20065;-75
2023/04/19 10:41:13;;;;;;;17.70;8.55;;;;;;;11.60;100.00;99088.34;4990977;28;20030;-75
2023/04/19 10:43:40;;;;;;;12.95;8.02;;;;;;;11.49;100.00;99091.66;4989894;28;20496;-75
2023/04/19 10:46:07;;;;;;;11.77;7.57;;;;;;;11.62;100.00;99114.22;4990674;28;20069;-75
2023/04/19 10:48:34;;;;;;;16.67;8.32;;;;;;;11.57;100.00;99116.69;4991866;28;20037;-75
2023/04/19 10:51:22;;;;;;;14.98;8.23;;;;;;;11.51;100.00;99100.41;4991902;28;20477;-77
2023/04/19 10:53:59;;;;;;;14.77;8.02;;;;;;;11.58;100.00;99104.84;4982496;28;20054;-74
2023/04/19 10:56:33;;;;;;;14.35;7.90;;;;;;;11.63;100.00;99110.50;4989652;28;20030;-76
2023/04/19 10:58:58;;;;;;;14.07;7.70;;;;;;;11.43;100.00;99104.13;4988513;28;20030;-72
2023/04/19 11:01:38;;;;;;;13.98;8.63;;;;;;;11.35;100.00;99097.00;4981984;28;20129;-77
2023/04/19 11:04:14;;;;;;;13.32;8.32;;;;;;;11.33;100.00;99100.97;4986816;28;20439;-74
2023/04/19 11:06:52;;;;;;;14.13;8.38;;;;;;;11.45;100.00;99103.91;4983532;28;20105;-79
2023/04/19 11:09:29;;;;;;;19.65;9.27;;;;;;;11.25;100.00;99079.47;4994031;28;20030;-78
2023/04/19 11:12:01;;;;;;;14.18;8.65;;;;;;;11.38;100.00;99095.78;4995285;28;20146;-73
2023/04/19 11:14:30;;;;;;;14.75;8.45;;;;;;;11.40;100.00;99093.72;4991850;28;20073;-74
2023/04/19 11:16:55;;;;;;;13.02;8.35;;;;;;;11.21;100.00;99079.00;4993256;28;20034;-75
2023/04/19 11:19:20;;;;;;;15.27;9.38;;;;;;;11.26;100.00;99081.13;4995886;28;20041;-78